Time;durP1;ratioP1;P1;durP2;ratioP2;P2;SDS_P1;SDS_P2;PMS_P1;PMS_P2;Temp;Humidity;BMP_temperature;BMP_pressure;BME280_temperature;BME280_humidity;BME280_pressure;Samples;Min_cycle;Max_cycle;Signal;HPM_P1;HPM_P2
2024/01/01 00:01:25;;;;;;;0.00;0.00;;;5.60;99.90;;;;;;5001086;28;20025;-65
2024/01/01 00:03:50;;;;;;;0.10;0.10;;;5.60;99.90;;;;;;5000610;28;20036;-66
2024/01/01 00:06:17;;;;;;;1.10;0.20;;;5.60;99.90;;;;;;5004078;28;20038;-65
2024/01/01 00:08:43;;;;;;;0.00;0.00;;;5.60;99.90;;;;;;5006330;28;20037;-66
2024/01/01 00:11:08;;;;;;;0.30;0.30;;;5.60;99.90;;;;;;5008865;28;20026;-65
2024/01/01 00:13:34;;;;;;;0.00;0.00;;;5.60;99.90;;;;;;5002220;28;20053;-65
2024/01/01 00:16:00;;;;;;;0.00;0.00;;;5.60;99.90;;;;;;5010437;28;20037;-65
2024/01/01 00:18:25;;;;;;;0.00;0.00;;;5.60;99.90;;;;;;5008452;28;20087;-65
2024/01/01 00:20:51;;;;;;;0.00;0.00;;;5.60;99.90;;;;;;4985293;28;20029;-67
2024/01/01 00:23:16;;;;;;;0.00;0.00;;;5.60;99.90;;;;;;4986413;28;20030;-66
2024/01/01 00:25:42;;;;;;;0.00;0.00;;;5.60;99.90;;;;;;5007097;28;20051;-66
2024/01/01 00:28:08;;;;;;;0.00;0.00;;;5.60;99.90;;;;;;5016563;28;20137;-65
2024/01/01 00:30:34;;;;;;;0.13;0.13;;;5.60;99.90;;;;;;5005413;28;20037;-65
2024/01/01 00:32:59;;;;;;;0.00;0.00;;;5.60;99.90;;;;;;5004066;28;20034;-65
2024/01/01 00:35:25;;;;;;;0.00;0.00;;;5.60;99.90;;;;;;5001180;28;20727;-64
2024/01/01 00:37:51;;;;;;;0.00;0.00;;;5.60;99.90;;;;;;5007397;28;20111;-68
2024/01/01 00:40:16;;;;;;;0.00;0.00;;;5.60;99.90;;;;;;5004239;28;20034;-67
2024/01/01 00:42:43;;;;;;;0.00;0.00;;;5.60;99.90;;;;;;4994869;28;20129;-67
2024/01/01 00:45:09;;;;;;;0.00;0.00;;;5.60;99.90;;;;;;4989207;28;20578;-67
2024/01/01 00:47:35;;;;;;;2.25;1.15;;;5.60;99.90;;;;;;4999828;28;20144;-67
2024/01/01 00:50:03;;;;;;;0.00;0.00;;;5.60;99.90;;;;;;5006588;28;20062;-67
2024/01/01 00:52:29;;;;;;;0.00;0.00;;;5.60;99.90;;;;;;4988636;28;20034;-68
2024/01/01 00:54:55;;;;;;;0.00;0.00;;;5.60;99.90;;;;;;5006681;28;20539;-68
2024/01/01 00:57:21;;;;;;;0.00;0.00;;;5.60;99.90;;;;;;5011837;28;20479;-69
2024/01/01 00:59:47;;;;;;;0.00;0.00;;;5.50;99.90;;;;;;5002840;28;20445;-68
2024/01/01 01:02:13;;;;;;;0.00;0.00;;;5.60;99.90;;;;;;5006690;28;20017;-68
2024/01/01 01:04:42;;;;;;;0.00;0.00;;;5.60;99.90;;;;;;4993153;28;20022;-68
2024/01/01 01:07:08;;;;;;;0.00;0.00;;;5.50;99.90;;;;;;5009161;28;20021;-68
2024/01/01 01:09:34;;;;;;;0.00;0.00;;;5.40;99.90;;;;;;5010753;28;20452;-67
2024/01/01 01:11:59;;;;;;;0.00;0.00;;;5.40;99.90;;;;;;5012044;28;20022;-67
2024/01/01 01:14:25;;;;;;;0.00;0.00;;;5.40;99.90;;;;;;4994509;28;20036;-68
2024/01/01 01:16:51;;;;;;;0.00;0.00;;;5.30;99.90;;;;;;5007539;28;20148;-67
2024/01/01 01:19:16;;;;;;;0.00;0.00;;;5.20;99.90;;;;;;5011084;28;20018;-67
2024/01/01 01:21:42;;;;;;;0.00;0.00;;;5.10;99.90;;;;;;4991429;28;20089;-68
2024/01/01 01:24:07;;;;;;;0.00;0.00;;;5.10;99.90;;;;;;4994303;28;20042;-67
2024/01/01 01:26:33;;;;;;;0.00;0.00;;;5.00;99.90;;;;;;5013166;28;20655;-67
2024/01/01 01:28:59;;;;;;;0.00;0.00;;;4.90;99.90;;;;;;5013258;28;20038;-67
2024/01/01 01:31:25;;;;;;;0.00;0.00;;;4.90;99.90;;;;;;5000532;28;20062;-67
2024/01/01 01:33:52;;;;;;;0.00;0.00;;;4.90;99.90;;;;;;5012198;28;20141;-67
2024/01/01 01:36:18;;;;;;;0.35;0.35;;;4.80;99.90;;;;;;5004397;28;20025;-67
2024/01/01 01:38:43;;;;;;;0.00;0.00;;;4.70;99.90;;;;;;5011348;28;20527;-67
2024/01/01 01:41:09;;;;;;;0.00;0.00;;;4.70;99.90;;;;;;5013488;28;20030;-67
2024/01/01 01:43:35;;;;;;;0.00;0.00;;;4.60;99.90;;;;;;5012431;28;20061;-67
2024/01/01 01:46:02;;;;;;;0.00;0.00;;;4.60;99.90;;;;;;5011112;28;20025;-67
2024/01/01 01:48:28;;;;;;;0.00;0.00;;;4.60;99.90;;;;;;5013317;28;20463;-64
2024/01/01 01:50:54;;;;;;;0.00;0.00;;;4.50;99.90;;;;;;5012526;28;20022;-65
2024/01/01 01:53:23;;;;;;;0.00;0.00;;;4.50;99.90;;;;;;5016447;28;20347;-66
2024/01/01 01:55:50;;;;;;;0.00;0.00;;;4.50;99.90;;;;;;5017657;28;20586;-64
2024/01/01 01:58:17;;;;;;;0.00;0.00;;;4.40;99.90;;;;;;5018919;28;20021;-64
2024/01/01 02:00:45;;;;;;;0.00;0.00;;;4.40;99.90;;;;;;5009096;28;20480;-65
2024/01/01 02:03:11;;;;;;;0.00;0.00;;;4.40;99.90;;;;;;5009106;28;20410;-66
2024/01/01 02:05:37;;;;;;;0.00;0.00;;;4.30;99.90;;;;;;5012278;28;20036;-64
2024/01/01 02:08:04;;;;;;;0.00;0.00;;;4.30;99.90;;;;;;5014433;28;20287;-64
2024/01/01 02:10:30;;;;;;;0.00;0.00;;;4.30;99.90;;;;;;4993576;28;20495;-66
2024/01/01 02:12:56;;;;;;;0.00;0.00;;;4.20;99.90;;;;;;5019636;28;20041;-64
2024/01/01 02:15:21;;;;;;;0.00;0.00;;;4.20;99.90;;;;;;5013753;28;20400;-65
2024/01/01 02:17:48;;;;;;;0.00;0.00;;;4.20;99.90;;;;;;5013298;28;20026;-64
2024/01/01 02:20:14;;;;;;;0.88;0.35;;;4.20;99.90;;;;;;5014336;28;20029;-65
2024/01/01 02:22:41;;;;;;;0.00;0.00;;;4.20;99.90;;;;;;5011629;28;20041;-65
2024/01/01 02:25:12;;;;;;;0.00;0.00;;;4.10;99.90;;;;;;4998252;28;20493;-67
2024/01/01 02:27:38;;;;;;;0.00;0.00;;;4.10;99.90;;;;;;5010843;28;20033;-65
2024/01/01 02:30:10;;;;;;;0.00;0.00;;;4.10;99.90;;;;;;5014923;28;20029;-64
2024/01/01 02:32:39;;;;;;;0.00;0.00;;;4.10;99.90;;;;;;5005505;28;20034;-65
2024/01/01 02:35:07;;;;;;;0.00;0.00;;;4.10;99.90;;;;;;5015251;28;20072;-64
2024/01/01 02:37:33;;;;;;;0.00;0.00;;;4.10;99.90;;;;;;4996972;28;20093;-64
2024/01/01 02:40:00;;;;;;;0.00;0.00;;;4.00;99.90;;;;;;5014884;28;20021;-65
2024/01/01 02:42:27;;;;;;;0.00;0.00;;;4.00;99.90;;;;;;5002414;28;20388;-65
2024/01/01 02:44:52;;;;;;;0.00;0.00;;;4.00;99.90;;;;;;5011553;28;20025;-66
2024/01/01 02:47:18;;;;;;;0.00;0.00;;;4.00;99.90;;;;;;5007756;28;20032;-66
2024/01/01 02:49:44;;;;;;;0.00;0.00;;;4.10;99.90;;;;;;4994226;28;20084;-65
2024/01/01 02:52:10;;;;;;;0.00;0.00;;;4.10;99.90;;;;;;5017919;28;20029;-65
2024/01/01 02:54:36;;;;;;;0.00;0.00;;;4.10;99.90;;;;;;5009661;28;20038;-66
2024/01/01 02:57:02;;;;;;;0.00;0.00;;;4.00;99.90;;;;;;5017999;28;20048;-65
2024/01/01 02:59:27;;;;;;;0.00;0.00;;;4.10;99.90;;;;;;5005732;28;20361;-67
2024/01/01 03:01:53;;;;;;;0.00;0.00;;;4.10;99.90;;;;;;5007670;28;20017;-67
2024/01/01 03:04:19;;;;;;;0.00;0.00;;;4.10;99.90;;;;;;5008687;28;20052;-68
2024/01/01 03:06:44;;;;;;;0.00;0.00;;;4.10;99.90;;;;;;5016880;28;20053;-67
2024/01/01 03:09:10;;;;;;;0.00;0.00;;;4.10;99.90;;;;;;5010468;28;20041;-67
2024/01/01 03:11:36;;;;;;;0.00;0.00;;;4.10;99.90;;;;;;5014196;28;20080;-67
2024/01/01 03:14:01;;;;;;;0.00;0.00;;;4.10;99.90;;;;;;5014802;28;20049;-68
2024/01/01 03:16:27;;;;;;;0.00;0.00;;;4.10;99.90;;;;;;5012203;28;20109;-68
2024/01/01 03:18:52;;;;;;;0.00;0.00;;;4.20;99.90;;;;;;5012715;28;20017;-67
2024/01/01 03:21:18;;;;;;;0.00;0.00;;;4.10;99.90;;;;;;5017054;28;20698;-67
2024/01/01 03:23:44;;;;;;;0.00;0.00;;;4.10;99.90;;;;;;5012335;28;20098;-70
2024/01/01 03:26:10;;;;;;;0.00;0.00;;;4.20;99.90;;;;;;5016658;28;20193;-68
2024/01/01 03:28:36;;;;;;;0.00;0.00;;;4.20;99.90;;;;;;5014544;28;20057;-67
2024/01/01 03:31:01;;;;;;;0.00;0.00;;;4.20;99.90;;;;;;5012174;28;20069;-67
2024/01/01 03:33:28;;;;;;;0.00;0.00;;;4.20;99.90;;;;;;4990254;28;20024;-67
2024/01/01 03:35:54;;;;;;;0.00;0.00;;;4.20;99.90;;;;;;5012370;28;20072;-68
2024/01/01 03:38:20;;;;;;;0.00;0.00;;;4.30;99.90;;;;;;5012396;28;20057;-67
2024/01/01 03:40:46;;;;;;;0.00;0.00;;;4.30;99.90;;;;;;5015869;28;20021;-67
2024/01/01 03:43:12;;;;;;;0.00;0.00;;;4.30;99.90;;;;;;5009936;28;20030;-68
2024/01/01 03:45:37;;;;;;;0.00;0.00;;;4.30;99.90;;;;;;5009602;28;20056;-67
2024/01/01 03:48:03;;;;;;;0.00;0.00;;;4.30;99.90;;;;;;5008283;28;20048;-67
2024/01/01 03:50:29;;;;;;;0.00;0.00;;;4.40;99.90;;;;;;5005544;28;20420;-68
2024/01/01 03:52:55;;;;;;;0.00;0.00;;;4.40;99.90;;;;;;5014114;28;20041;-68
2024/01/01 03:55:21;;;;;;;0.00;0.00;;;4.40;99.90;;;;;;5006835;28;20080;-67
2024/01/01 03:57:46;;;;;;;0.00;0.00;;;4.40;99.90;;;;;;5005451;28;20510;-67
2024/01/01 04:00:12;;;;;;;0.00;0.00;;;4.40;99.90;;;;;;5014268;28;20017;-67
2024/01/01 04:02:40;;;;;;;0.00;0.00;;;4.40;99.90;;;;;;5008671;28;20014;-68
2024/01/01 04:05:07;;;;;;;0.00;0.00;;;4.50;99.90;;;;;;5009551;28;20062;-68
2024/01/01 04:07:36;;;;;;;;;;;4.50;99.90;;;;;;5013805;28;20540;-66
2024/01/01 04:10:04;;;;;;;0.00;0.00;;;4.50;99.90;;;;;;5010969;28;20313;-68
2024/01/01 04:12:29;;;;;;;0.00;0.00;;;4.50;99.90;;;;;;5000263;28;20516;-67
2024/01/01 04:14:55;;;;;;;0.00;0.00;;;4.50;99.90;;;;;;5017638;28;20044;-67
2024/01/01 04:17:21;;;;;;;0.00;0.00;;;4.50;99.90;;;;;;5012760;28;20025;-67
2024/01/01 04:19:47;;;;;;;0.00;0.00;;;4.50;99.90;;;;;;5011925;28;20025;-67
2024/01/01 04:22:17;;;;;;;0.00;0.00;;;4.50;99.90;;;;;;4996990;28;20457;-67
2024/01/01 04:24:44;;;;;;;0.00;0.00;;;4.50;99.90;;;;;;5009889;28;20104;-67
2024/01/01 04:27:10;;;;;;;0.00;0.00;;;4.50;99.90;;;;;;5011241;28;20018;-67
2024/01/01 04:29:36;;;;;;;0.10;0.10;;;4.50;99.90;;;;;;5017393;28;20424;-67
2024/01/01 04:32:02;;;;;;;0.00;0.00;;;4.60;99.90;;;;;;5009497;28;20033;-67
2024/01/01 04:34:28;;;;;;;0.00;0.00;;;4.50;99.90;;;;;;5008244;28;20125;-67
2024/01/01 04:36:53;;;;;;;0.00;0.00;;;4.60;99.90;;;;;;5016025;28;20132;-67
2024/01/01 04:39:19;;;;;;;0.00;0.00;;;4.60;99.90;;;;;;5012936;28;20535;-67
2024/01/01 04:41:45;;;;;;;0.00;0.00;;;4.60;99.90;;;;;;5017842;28;20044;-67
2024/01/01 04:44:11;;;;;;;0.00;0.00;;;4.60;99.90;;;;;;5014454;28;20033;-67
2024/01/01 04:46:37;;;;;;;0.00;0.00;;;4.60;99.90;;;;;;5009528;28;20045;-67
2024/01/01 04:49:02;;;;;;;0.00;0.00;;;4.60;99.90;;;;;;5006828;28;20065;-67
2024/01/01 04:51:28;;;;;;;0.00;0.00;;;4.60;99.90;;;;;;5007805;28;20037;-67
2024/01/01 04:53:54;;;;;;;0.00;0.00;;;4.60;99.90;;;;;;5008586;28;20030;-67
2024/01/01 04:56:21;;;;;;;0.00;0.00;;;4.70;99.90;;;;;;4990205;28;20037;-67
2024/01/01 04:58:47;;;;;;;0.00;0.00;;;4.70;99.90;;;;;;5014493;28;20028;-67
2024/01/01 05:01:13;;;;;;;0.00;0.00;;;4.70;99.90;;;;;;5006814;28;20519;-67
2024/01/01 05:03:39;;;;;;;0.03;0.03;;;4.80;99.90;;;;;;5007657;28;20029;-67
2024/01/01 05:06:04;;;;;;;0.00;0.00;;;4.80;99.90;;;;;;5005080;28;20033;-67
2024/01/01 05:08:32;;;;;;;0.00;0.00;;;4.80;99.90;;;;;;4988753;28;20049;-67
2024/01/01 05:10:58;;;;;;;0.00;0.00;;;4.80;99.90;;;;;;5015151;28;20033;-67
2024/01/01 05:13:23;;;;;;;0.20;0.05;;;4.80;99.90;;;;;;5007372;28;20049;-67
2024/01/01 05:15:49;;;;;;;0.00;0.00;;;4.90;99.90;;;;;;5015386;28;20468;-67
2024/01/01 05:18:15;;;;;;;0.00;0.00;;;4.90;99.90;;;;;;4991135;28;20023;-66
2024/01/01 05:20:42;;;;;;;0.00;0.00;;;4.90;99.90;;;;;;5008208;28;20084;-65
2024/01/01 05:23:08;;;;;;;0.00;0.00;;;4.90;99.90;;;;;;5008057;28;20411;-65
2024/01/01 05:25:33;;;;;;;0.00;0.00;;;4.90;99.90;;;;;;5008720;28;20064;-67
2024/01/01 05:27:59;;;;;;;0.00;0.00;;;5.00;99.90;;;;;;5008511;28;20504;-65
2024/01/01 05:30:29;;;;;;;0.00;0.00;;;5.00;99.90;;;;;;5009056;28;20036;-65
2024/01/01 05:32:54;;;;;;;0.00;0.00;;;5.00;99.90;;;;;;5006191;28;20014;-67
2024/01/01 05:35:20;;;;;;;0.00;0.00;;;5.00;99.90;;;;;;5008846;28;20070;-66
2024/01/01 05:37:46;;;;;;;0.00;0.00;;;5.00;99.90;;;;;;5009945;28;20073;-65
2024/01/01 05:40:11;;;;;;;0.00;0.00;;;5.10;99.90;;;;;;5013252;28;20025;-64
2024/01/01 05:42:37;;;;;;;0.00;0.00;;;5.10;99.90;;;;;;5008502;28;20032;-67
2024/01/01 05:45:03;;;;;;;0.00;0.00;;;5.10;99.90;;;;;;5016282;28;20268;-65
2024/01/01 05:47:29;;;;;;;0.00;0.00;;;5.10;99.90;;;;;;5009855;28;20021;-65
2024/01/01 05:49:55;;;;;;;0.00;0.00;;;5.10;99.90;;;;;;5008905;28;20034;-66
2024/01/01 05:52:21;;;;;;;0.00;0.00;;;5.20;99.90;;;;;;5007489;28;20029;-66
2024/01/01 05:54:48;;;;;;;0.00;0.00;;;5.20;99.90;;;;;;4985000;28;20021;-64
2024/01/01 05:57:14;;;;;;;;;;;5.20;99.90;;;;;;5008655;28;20101;-64
2024/01/01 05:59:39;;;;;;;0.00;0.00;;;5.20;99.90;;;;;;5012227;28;20016;-65
2024/01/01 06:02:07;;;;;;;0.00;0.00;;;5.20;99.90;;;;;;5012723;28;20022;-66
2024/01/01 06:04:33;;;;;;;0.00;0.00;;;5.20;99.90;;;;;;5008061;28;20106;-64
2024/01/01 06:06:59;;;;;;;0.00;0.00;;;5.20;99.90;;;;;;4996087;28;20104;-65
2024/01/01 06:09:24;;;;;;;0.00;0.00;;;5.20;99.90;;;;;;5004074;28;20087;-66
2024/01/01 06:11:50;;;;;;;0.00;0.00;;;5.20;99.90;;;;;;5013577;28;20022;-66
2024/01/01 06:14:17;;;;;;;0.00;0.00;;;5.20;99.90;;;;;;5011895;28;20029;-65
2024/01/01 06:16:44;;;;;;;;;;;5.20;99.90;;;;;;4988260;28;20311;-65
2024/01/01 06:19:10;;;;;;;0.00;0.00;;;5.30;99.90;;;;;;5010501;28;19910;-65
2024/01/01 06:21:36;;;;;;;0.00;0.00;;;5.30;99.90;;;;;;5006187;28;20049;-64
2024/01/01 06:24:02;;;;;;;0.00;0.00;;;5.30;99.90;;;;;;5012294;28;20057;-65
2024/01/01 06:26:28;;;;;;;0.00;0.00;;;5.30;99.90;;;;;;5006942;28;20438;-64
2024/01/01 06:28:53;;;;;;;0.00;0.00;;;5.30;99.90;;;;;;5016474;28;20037;-64
2024/01/01 06:31:19;;;;;;;0.00;0.00;;;5.40;99.90;;;;;;5004889;28;20053;-65
2024/01/01 06:33:44;;;;;;;0.00;0.00;;;5.40;99.90;;;;;;4991518;28;20113;-66
2024/01/01 06:36:10;;;;;;;0.00;0.00;;;5.40;99.90;;;;;;4995498;28;20116;-66
2024/01/01 06:38:39;;;;;;;0.00;0.00;;;5.40;99.90;;;;;;5008289;28;20109;-64
2024/01/01 06:41:05;;;;;;;0.00;0.00;;;5.40;99.90;;;;;;5001237;28;20072;-64
2024/01/01 06:43:32;;;;;;;;;;;5.40;99.90;;;;;;5015458;28;20030;-65
2024/01/01 06:45:58;;;;;;;0.00;0.00;;;5.40;99.90;;;;;;5015089;28;19905;-63
2024/01/01 06:48:23;;;;;;;0.00;0.00;;;5.40;99.90;;;;;;5011721;28;20029;-65
2024/01/01 06:50:49;;;;;;;0.30;0.30;;;5.40;99.90;;;;;;4998816;28;20029;-65
2024/01/01 06:53:15;;;;;;;0.00;0.00;;;5.40;99.90;;;;;;5010429;28;20045;-66
2024/01/01 06:55:40;;;;;;;0.00;0.00;;;5.50;99.90;;;;;;5012179;28;20041;-65
2024/01/01 06:58:06;;;;;;;0.00;0.00;;;5.50;99.90;;;;;;4997317;28;20461;-65
2024/01/01 07:00:32;;;;;;;0.00;0.00;;;5.50;99.90;;;;;;5011585;28;20057;-65
2024/01/01 07:02:57;;;;;;;0.00;0.00;;;5.50;99.90;;;;;;5006075;28;20065;-64
2024/01/01 07:05:24;;;;;;;0.00;0.00;;;5.60;99.90;;;;;;5013943;28;20068;-64
2024/01/01 07:07:50;;;;;;;;;;;5.60;99.90;;;;;;5010552;28;20030;-65
2024/01/01 07:10:16;;;;;;;0.00;0.00;;;5.60;99.90;;;;;;5018418;28;19945;-65
2024/01/01 07:12:42;;;;;;;0.00;0.00;;;5.60;99.90;;;;;;4996291;28;20524;-65
2024/01/01 07:15:08;;;;;;;0.00;0.00;;;5.60;99.90;;;;;;5016727;28;20060;-64
2024/01/01 07:17:33;;;;;;;0.00;0.00;;;5.70;99.90;;;;;;5014298;28;20018;-66
2024/01/01 07:20:00;;;;;;;0.00;0.00;;;5.70;99.90;;;;;;4993763;28;20053;-64
2024/01/01 07:22:25;;;;;;;0.00;0.00;;;5.70;99.90;;;;;;5015207;28;20442;-65
2024/01/01 07:24:51;;;;;;;0.00;0.00;;;5.70;99.90;;;;;;5009419;28;20053;-65
2024/01/01 07:27:17;;;;;;;0.00;0.00;;;5.70;99.90;;;;;;5012770;28;20374;-64
2024/01/01 07:29:43;;;;;;;0.00;0.00;;;5.70;99.90;;;;;;4997907;28;20064;-64
2024/01/01 07:32:08;;;;;;;0.00;0.00;;;5.70;99.90;;;;;;5008202;28;20399;-64
2024/01/01 07:34:34;;;;;;;0.00;0.00;;;5.70;99.90;;;;;;5015758;28;20022;-64
2024/01/01 07:37:00;;;;;;;0.00;0.00;;;5.80;99.90;;;;;;5011679;28;20057;-66
2024/01/01 07:39:29;;;;;;;;;;;5.80;99.90;;;;;;5013538;28;20021;-65
2024/01/01 07:41:55;;;;;;;0.00;0.00;;;5.80;99.90;;;;;;5016731;28;19932;-65
2024/01/01 07:44:21;;;;;;;0.00;0.00;;;5.80;99.90;;;;;;5005330;28;20382;-65
2024/01/01 07:46:50;;;;;;;0.00;0.00;;;5.80;99.90;;;;;;5011513;28;20022;-64
2024/01/01 07:49:16;;;;;;;0.00;0.00;;;5.80;99.90;;;;;;4997980;28;20140;-65
2024/01/01 07:51:41;;;;;;;0.00;0.00;;;5.80;99.90;;;;;;5010442;28;20568;-64
2024/01/01 07:54:07;;;;;;;0.00;0.00;;;5.90;99.90;;;;;;5010510;28;20030;-64
2024/01/01 07:56:33;;;;;;;0.00;0.00;;;5.90;99.90;;;;;;5015719;28;20018;-64
2024/01/01 07:58:58;;;;;;;0.00;0.00;;;6.00;99.90;;;;;;5009131;28;20022;-65
2024/01/01 08:01:25;;;;;;;0.00;0.00;;;6.00;99.90;;;;;;5014129;28;20056;-65
2024/01/01 08:03:50;;;;;;;0.00;0.00;;;6.00;99.90;;;;;;5009162;28;20033;-66
2024/01/01 08:06:17;;;;;;;0.00;0.00;;;6.00;99.90;;;;;;5015121;28;20029;-67
2024/01/01 08:08:43;;;;;;;0.00;0.00;;;6.10;99.90;;;;;;5012896;28;20013;-65
2024/01/01 08:11:09;;;;;;;0.00;0.00;;;6.10;99.90;;;;;;5014545;28;20036;-66
2024/01/01 08:13:36;;;;;;;0.00;0.00;;;6.00;99.90;;;;;;5010214;28;20617;-64
2024/01/01 08:16:02;;;;;;;0.00;0.00;;;6.00;99.90;;;;;;5008512;28;20115;-66
2024/01/01 08:18:28;;;;;;;0.00;0.00;;;6.10;99.90;;;;;;5007717;28;20025;-65
2024/01/01 08:20:54;;;;;;;0.00;0.00;;;6.10;99.90;;;;;;5010906;28;20083;-64
2024/01/01 08:23:20;;;;;;;0.00;0.00;;;6.10;99.90;;;;;;5010169;28;20030;-66
2024/01/01 08:25:46;;;;;;;0.00;0.00;;;6.20;99.90;;;;;;5008638;28;20025;-64
2024/01/01 08:28:12;;;;;;;0.00;0.00;;;6.20;99.90;;;;;;5010523;28;20030;-66
2024/01/01 08:30:43;;;;;;;0.00;0.00;;;6.30;99.90;;;;;;5003560;28;20026;-64
2024/01/01 08:33:08;;;;;;;0.00;0.00;;;6.30;99.90;;;;;;5004380;28;20048;-64
2024/01/01 08:35:34;;;;;;;0.00;0.00;;;6.30;99.90;;;;;;5007468;28;20496;-63
2024/01/01 08:38:00;;;;;;;0.00;0.00;;;6.30;99.90;;;;;;5015765;28;20718;-66
2024/01/01 08:40:25;;;;;;;0.00;0.00;;;6.40;99.90;;;;;;5008747;28;20029;-63
2024/01/01 08:42:51;;;;;;;0.00;0.00;;;6.50;99.90;;;;;;5013949;28;20056;-63
2024/01/01 08:45:20;;;;;;;0.00;0.00;;;6.50;99.90;;;;;;5009776;28;20030;-63
2024/01/01 08:47:46;;;;;;;0.00;0.00;;;6.60;99.90;;;;;;5005614;28;20481;-64
2024/01/01 08:50:13;;;;;;;0.03;0.03;;;6.70;99.90;;;;;;5009180;28;20029;-63
2024/01/01 08:52:38;;;;;;;;;;;6.90;99.90;;;;;;5009026;28;20048;-63
2024/01/01 08:55:05;;;;;;;0.00;0.00;;;7.30;99.90;;;;;;5007830;28;19912;-64
2024/01/01 08:57:30;;;;;;;0.00;0.00;;;7.40;99.90;;;;;;5007770;28;20102;-62
2024/01/01 08:59:56;;;;;;;0.00;0.00;;;7.50;99.90;;;;;;5008216;28;20109;-63
2024/01/01 09:02:21;;;;;;;0.00;0.00;;;7.50;99.90;;;;;;5007513;28;20806;-63
2024/01/01 09:04:47;;;;;;;0.00;0.00;;;7.50;99.90;;;;;;5006912;28;20706;-64
2024/01/01 09:07:13;;;;;;;0.00;0.00;;;7.50;99.90;;;;;;5011239;28;20040;-63
2024/01/01 09:09:38;;;;;;;0.00;0.00;;;7.50;99.90;;;;;;5009952;28;20137;-63
2024/01/01 09:12:05;;;;;;;0.00;0.00;;;7.60;99.90;;;;;;4999068;28;20021;-62
2024/01/01 09:14:30;;;;;;;0.00;0.00;;;7.80;99.90;;;;;;5011564;28;20026;-62
2024/01/01 09:16:57;;;;;;;;;;;8.00;99.90;;;;;;5010558;28;20057;-65
2024/01/01 09:19:23;;;;;;;0.00;0.00;;;8.00;99.90;;;;;;5007046;28;20331;-64
2024/01/01 09:21:49;;;;;;;0.00;0.00;;;8.10;99.90;;;;;;4990525;28;20022;-63
2024/01/01 09:24:15;;;;;;;0.00;0.00;;;8.10;99.90;;;;;;5009062;28;20109;-64
2024/01/01 09:26:40;;;;;;;0.00;0.00;;;8.40;99.90;;;;;;4998072;28;20030;-63
2024/01/01 09:29:06;;;;;;;0.00;0.00;;;8.70;99.90;;;;;;5007414;28;20265;-63
2024/01/01 09:31:32;;;;;;;0.00;0.00;;;9.30;99.90;;;;;;5010736;28;20120;-63
2024/01/01 09:34:00;;;;;;;0.00;0.00;;;11.00;99.90;;;;;;5005054;28;20104;-64
2024/01/01 09:36:30;;;;;;;0.00;0.00;;;14.80;99.90;;;;;;5001585;28;20033;-63
2024/01/01 09:38:56;;;;;;;0.10;0.10;;;16.40;99.90;;;;;;5008696;28;20013;-65
2024/01/01 09:41:25;;;;;;;;;;;15.80;98.40;;;;;;5000322;28;20444;-64
2024/01/01 09:43:53;;;;;;;0.00;0.00;;;14.60;99.60;;;;;;5006775;28;19916;-64
2024/01/01 09:46:18;;;;;;;0.00;0.00;;;14.10;99.90;;;;;;5005042;28;20030;-63
2024/01/01 09:48:45;;;;;;;0.98;0.47;;;13.00;99.90;;;;;;5009184;28;20579;-65
2024/01/01 09:51:11;;;;;;;0.00;0.00;;;12.30;99.90;;;;;;5000674;28;20130;-64
2024/01/01 09:53:37;;;;;;;0.00;0.00;;;11.90;99.90;;;;;;5006233;28;20404;-63
2024/01/01 09:56:03;;;;;;;0.00;0.00;;;12.20;99.90;;;;;;5005908;28;20393;-63
2024/01/01 09:58:39;;;;;;;0.00;0.00;;;14.40;99.90;;;;;;5006582;28;20029;-64
2024/01/01 10:01:12;;;;;;;0.88;0.47;;;17.10;98.90;;;;;;5005513;28;20983;-66
2024/01/01 10:03:39;;;;;;;0.00;0.00;;;18.90;95.50;;;;;;5007517;28;20034;-64
2024/01/01 10:06:10;;;;;;;0.00;0.00;;;19.40;92.00;;;;;;5003489;28;20026;-65
2024/01/01 10:08:36;;;;;;;0.00;0.00;;;18.00;92.00;;;;;;5004463;28;20099;-63
2024/01/01 10:11:18;;;;;;;0.00;0.00;;;16.20;93.70;;;;;;4989577;28;20116;-64
2024/01/01 10:13:44;;;;;;;0.00;0.00;;;14.40;95.70;;;;;;5008698;28;20362;-64
2024/01/01 10:16:10;;;;;;;0.00;0.00;;;13.30;98.40;;;;;;5010365;28;20040;-63
2024/01/01 10:18:36;;;;;;;0.00;0.00;;;12.50;99.90;;;;;;5009634;28;20530;-62
2024/01/01 10:21:11;;;;;;;0.00;0.00;;;13.40;99.90;;;;;;5009427;28;20025;-63
2024/01/01 10:23:37;;;;;;;0.00;0.00;;;13.30;99.90;;;;;;5012999;28;20013;-64
2024/01/01 10:26:05;;;;;;;0.00;0.00;;;14.70;99.20;;;;;;5010099;28;20037;-64
2024/01/01 10:28:31;;;;;;;0.00;0.00;;;17.80;95.40;;;;;;4996997;28;20022;-65
2024/01/01 10:30:59;;;;;;;0.00;0.00;;;19.20;92.80;;;;;;4993526;28;20037;-63
2024/01/01 10:33:29;;;;;;;2.33;0.38;;;19.90;90.00;;;;;;5005275;28;20443;-64
2024/01/01 10:35:58;;;;;;;0.00;0.00;;;19.10;88.40;;;;;;5005717;28;20021;-64
2024/01/01 10:38:25;;;;;;;0.00;0.00;;;18.80;89.60;;;;;;5009441;28;20547;-64
2024/01/01 10:40:55;;;;;;;;;;;19.20;88.60;;;;;;5019335;28;20026;-65
2024/01/01 10:43:25;;;;;;;0.00;0.00;;;21.00;85.90;;;;;;5016333;28;20435;-64
2024/01/01 10:45:54;;;;;;;0.00;0.00;;;22.00;81.50;;;;;;4991902;28;20405;-64
2024/01/01 10:48:22;;;;;;;0.00;0.00;;;22.80;78.40;;;;;;5009937;28;20595;-65
2024/01/01 10:51:14;;;;;;;0.00;0.00;;;23.60;75.00;;;;;;4992549;28;20025;-64
2024/01/01 10:53:55;;;;;;;0.00;0.00;;;20.80;74.80;;;;;;4981773;28;20119;-64
2024/01/01 10:56:36;;;;;;;0.00;0.00;;;19.10;79.90;;;;;;5011704;28;20049;-65
2024/01/01 10:59:19;;;;;;;0.00;0.00;;;19.50;80.40;;;;;;5012922;28;20029;-64
2024/01/01 11:01:48;;;;;;;0.00;0.00;;;18.90;80.60;;;;;;5016990;28;20013;-66
2024/01/01 11:04:15;;;;;;;0.00;0.00;;;17.30;82.60;;;;;;5009237;28;20030;-63
2024/01/01 11:06:44;;;;;;;0.00;0.00;;;16.00;85.70;;;;;;5016341;28;20029;-64
2024/01/01 11:09:19;;;;;;;0.00;0.00;;;14.90;89.20;;;;;;5009237;28;20034;-64
2024/01/01 11:11:55;;;;;;;0.00;0.00;;;13.60;92.00;;;;;;5007219;28;20100;-66
2024/01/01 11:14:30;;;;;;;0.00;0.00;;;13.00;94.00;;;;;;5017231;28;20828;-64
2024/01/01 11:17:00;;;;;;;0.00;0.00;;;12.50;95.00;;;;;;5006661;28;20056;-66
2024/01/01 11:19:43;;;;;;;0.08;0.08;;;12.10;97.50;;;;;;5004542;28;20026;-63
2024/01/01 11:22:18;;;;;;;0.00;0.00;;;12.20;99.90;;;;;;5006286;28;20095;-63
2024/01/01 11:24:45;;;;;;;0.00;0.00;;;12.20;99.90;;;;;;5004182;28;20763;-64
2024/01/01 11:27:26;;;;;;;0.00;0.00;;;12.20;99.90;;;;;;5003068;28;20029;-63
2024/01/01 11:29:52;;;;;;;0.00;0.00;;;12.20;99.90;;;;;;5006345;28;20021;-66
2024/01/01 11:32:18;;;;;;;0.00;0.00;;;12.60;99.90;;;;;;4990097;28;20022;-66
2024/01/01 11:34:44;;;;;;;0.00;0.00;;;12.80;99.90;;;;;;5007464;28;20056;-63
2024/01/01 11:37:21;;;;;;;0.00;0.00;;;12.70;99.90;;;;;;5006089;28;20510;-65
2024/01/01 11:39:59;;;;;;;;;;;12.50;99.90;;;;;;5004255;28;20056;-62
2024/01/01 11:42:26;;;;;;;0.00;0.00;;;12.20;99.90;;;;;;5004032;28;20033;-62
2024/01/01 11:45:04;;;;;;;;;;;12.00;99.90;;;;;;5010099;28;20389;-64
2024/01/01 11:47:29;;;;;;;0.00;0.00;;;11.80;99.90;;;;;;5010519;28;20395;-65
2024/01/01 11:49:57;;;;;;;0.00;0.00;;;11.80;99.90;;;;;;5014200;28;20034;-63
2024/01/01 11:52:23;;;;;;;0.00;0.00;;;11.70;99.90;;;;;;5004995;28;20104;-64
2024/01/01 11:54:48;;;;;;;0.00;0.00;;;11.50;99.90;;;;;;5007289;28;20022;-64
2024/01/01 11:57:14;;;;;;;0.00;0.00;;;11.10;99.90;;;;;;5010027;28;20463;-64
2024/01/01 11:59:40;;;;;;;0.00;0.00;;;11.00;99.90;;;;;;4997861;28;21361;-65
2024/01/01 12:02:08;;;;;;;0.00;0.00;;;11.00;99.90;;;;;;4991854;28;20039;-63
2024/01/01 12:04:34;;;;;;;0.00;0.00;;;11.10;99.90;;;;;;5007721;28;20563;-64
2024/01/01 12:07:00;;;;;;;0.00;0.00;;;11.20;99.90;;;;;;5003496;28;20065;-66
2024/01/01 12:09:26;;;;;;;0.00;0.00;;;11.30;99.90;;;;;;5003152;28;20025;-65
2024/01/01 12:12:03;;;;;;;0.00;0.00;;;11.30;99.90;;;;;;5002677;28;20030;-64
2024/01/01 12:14:29;;;;;;;0.00;0.00;;;11.20;99.90;;;;;;5000664;28;20077;-63
2024/01/01 12:16:57;;;;;;;0.00;0.00;;;11.10;99.90;;;;;;4992250;28;20485;-64
2024/01/01 12:19:23;;;;;;;0.00;0.00;;;10.90;99.90;;;;;;5005332;28;20032;-70
2024/01/01 12:21:50;;;;;;;0.00;0.00;;;10.90;99.90;;;;;;5005319;28;20162;-70
2024/01/01 12:24:18;;;;;;;0.00;0.00;;;10.80;99.90;;;;;;5006684;28;20120;-70
2024/01/01 12:26:50;;;;;;;0.00;0.00;;;10.80;99.90;;;;;;5003754;28;20028;-67
2024/01/01 12:29:19;;;;;;;0.00;0.00;;;10.90;99.90;;;;;;5006302;28;20110;-68
2024/01/01 12:31:46;;;;;;;0.00;0.00;;;10.90;99.90;;;;;;5003198;28;20478;-67
2024/01/01 12:34:14;;;;;;;0.00;0.00;;;10.80;99.90;;;;;;5006050;28;20469;-68
2024/01/01 12:36:41;;;;;;;0.00;0.00;;;10.80;99.90;;;;;;4985977;28;20038;-70
2024/01/01 12:39:06;;;;;;;;;;;10.80;99.90;;;;;;5002715;28;20029;-69
2024/01/01 12:41:32;;;;;;;0.00;0.00;;;10.80;99.90;;;;;;5007513;28;19909;-69
2024/01/01 12:43:59;;;;;;;0.00;0.00;;;10.80;99.90;;;;;;5001870;28;20025;-69
2024/01/01 12:46:26;;;;;;;0.00;0.00;;;10.70;99.90;;;;;;5002704;28;20338;-67
2024/01/01 12:48:52;;;;;;;0.00;0.00;;;10.70;99.90;;;;;;5010477;28;20017;-68
2024/01/01 12:51:21;;;;;;;0.00;0.00;;;10.70;99.90;;;;;;5010900;28;20560;-68
2024/01/01 12:53:48;;;;;;;0.00;0.00;;;10.60;99.90;;;;;;5006175;28;20121;-68
2024/01/01 12:56:13;;;;;;;0.00;0.00;;;10.60;99.90;;;;;;5001440;28;20108;-68